sensor_id;sensor_type;location;lat;lon;timestamp;pressure;altitude;pressure_sealevel;temperature;humidity
15880;BME280;61999;51.514;14.614;2023-05-23T00:01:11;99571.97;;;12.10;37.39
15880;BME280;61999;51.514;14.614;2023-05-23T00:03:42;99572.69;;;12.12;37.02
15880;BME280;61999;51.514;14.614;2023-05-23T00:06:10;99560.72;;;12.08;37.40
15880;BME280;61999;51.514;14.614;2023-05-23T00:08:38;99560.16;;;12.04;36.88
15880;BME280;61999;51.514;14.614;2023-05-23T00:11:06;99564.06;;;12.00;37.51
15880;BME280;61999;51.514;14.614;2023-05-23T00:13:34;99557.28;;;11.98;37.41
15880;BME280;61999;51.514;14.614;2023-05-23T00:16:02;99557.16;;;11.90;37.45
15880;BME280;61999;51.514;14.614;2023-05-23T00:18:30;99557.44;;;11.87;37.91
15880;BME280;61999;51.514;14.614;2023-05-23T00:20:59;99561.03;;;11.86;37.50
15880;BME280;61999;51.514;14.614;2023-05-23T00:23:28;99556.06;;;11.82;37.34
15880;BME280;61999;51.514;14.614;2023-05-23T00:25:56;99549.13;;;11.81;37.19
15880;BME280;61999;51.514;14.614;2023-05-23T00:28:24;99553.00;;;11.77;37.21
15880;BME280;61999;51.514;14.614;2023-05-23T00:30:52;99544.13;;;11.69;38.05
15880;BME280;61999;51.514;14.614;2023-05-23T00:33:20;99542.75;;;11.65;37.88
15880;BME280;61999;51.514;14.614;2023-05-23T00:35:49;99538.75;;;11.61;38.50
15880;BME280;61999;51.514;14.614;2023-05-23T00:38:18;99545.69;;;11.62;38.10
15880;BME280;61999;51.514;14.614;2023-05-23T00:40:46;99556.38;;;11.60;38.28
15880;BME280;61999;51.514;14.614;2023-05-23T00:43:14;99560.00;;;11.59;37.86
15880;BME280;61999;51.514;14.614;2023-05-23T00:45:42;99558.63;;;11.55;38.33
15880;BME280;61999;51.514;14.614;2023-05-23T00:48:10;99559.84;;;11.51;38.09
15880;BME280;61999;51.514;14.614;2023-05-23T00:50:40;99557.50;;;11.48;38.31
15880;BME280;61999;51.514;14.614;2023-05-23T00:53:08;99567.63;;;11.43;38.24
15880;BME280;61999;51.514;14.614;2023-05-23T00:55:38;99562.06;;;11.46;37.86
15880;BME280;61999;51.514;14.614;2023-05-23T00:58:06;99561.41;;;11.44;37.87
15880;BME280;61999;51.514;14.614;2023-05-23T01:00:34;99565.00;;;11.43;37.78
15880;BME280;61999;51.514;14.614;2023-05-23T01:03:04;99559.72;;;11.43;37.96
15880;BME280;61999;51.514;14.614;2023-05-23T01:05:32;99552.09;;;11.40;37.83
15880;BME280;61999;51.514;14.614;2023-05-23T01:08:00;99558.06;;;11.42;38.37
15880;BME280;61999;51.514;14.614;2023-05-23T01:10:30;99546.13;;;11.38;38.52
15880;BME280;61999;51.514;14.614;2023-05-23T01:13:13;99550.56;;;11.37;38.44
15880;BME280;61999;51.514;14.614;2023-05-23T01:15:57;99552.78;;;11.32;38.12
15880;BME280;61999;51.514;14.614;2023-05-23T01:18:36;99544.28;;;11.28;38.82
15880;BME280;61999;51.514;14.614;2023-05-23T01:21:15;99538.03;;;11.29;38.75
15880;BME280;61999;51.514;14.614;2023-05-23T01:24:17;99533.72;;;11.19;39.19
15880;BME280;61999;51.514;14.614;2023-05-23T01:27:07;99535.53;;;11.18;38.70
15880;BME280;61999;51.514;14.614;2023-05-23T01:29:42;99537.47;;;11.16;39.62
15880;BME280;61999;51.514;14.614;2023-05-23T01:32:14;99527.75;;;11.07;40.17
15880;BME280;61999;51.514;14.614;2023-05-23T01:34:44;99539.25;;;11.06;39.94
15880;BME280;61999;51.514;14.614;2023-05-23T01:37:12;99528.28;;;10.91;40.73
15880;BME280;61999;51.514;14.614;2023-05-23T01:39:44;99533.00;;;10.97;39.86
15880;BME280;61999;51.514;14.614;2023-05-23T01:42:12;99528.88;;;10.95;40.41
15880;BME280;61999;51.514;14.614;2023-05-23T01:44:44;99535.81;;;10.96;39.99
15880;BME280;61999;51.514;14.614;2023-05-23T01:47:14;99525.09;;;10.97;39.67
15880;BME280;61999;51.514;14.614;2023-05-23T01:49:43;99528.59;;;10.98;39.80
15880;BME280;61999;51.514;14.614;2023-05-23T01:52:13;99520.53;;;10.99;39.80
15880;BME280;61999;51.514;14.614;2023-05-23T01:54:43;99523.03;;;11.01;39.89
15880;BME280;61999;51.514;14.614;2023-05-23T01:57:12;99522.88;;;11.02;39.86
15880;BME280;61999;51.514;14.614;2023-05-23T01:59:41;99532.19;;;10.97;39.86
15880;BME280;61999;51.514;14.614;2023-05-23T02:02:10;99519.69;;;10.99;40.07
15880;BME280;61999;51.514;14.614;2023-05-23T02:04:38;99523.72;;;11.03;39.86
15880;BME280;61999;51.514;14.614;2023-05-23T02:07:06;99523.03;;;11.01;39.66
15880;BME280;61999;51.514;14.614;2023-05-23T02:09:34;99527.75;;;10.97;40.17
15880;BME280;61999;51.514;14.614;2023-05-23T02:12:02;99517.06;;;10.99;40.20
15880;BME280;61999;51.514;14.614;2023-05-23T02:14:30;99513.72;;;10.97;40.34
15880;BME280;61999;51.514;14.614;2023-05-23T02:16:59;99521.63;;;10.97;40.41
15880;BME280;61999;51.514;14.614;2023-05-23T02:19:27;99524.28;;;10.97;39.93
15880;BME280;61999;51.514;14.614;2023-05-23T02:21:55;99529.81;;;10.93;40.20
15880;BME280;61999;51.514;14.614;2023-05-23T02:24:23;99528.88;;;10.95;40.36
15880;BME280;61999;51.514;14.614;2023-05-23T02:26:53;99527.19;;;10.93;40.81
15880;BME280;61999;51.514;14.614;2023-05-23T02:29:21;99525.53;;;10.92;40.90
15880;BME280;61999;51.514;14.614;2023-05-23T02:31:50;99520.25;;;10.92;40.81
15880;BME280;61999;51.514;14.614;2023-05-23T02:34:19;99521.91;;;10.93;40.66
15880;BME280;61999;51.514;14.614;2023-05-23T02:36:47;99514.97;;;10.92;40.79
15880;BME280;61999;51.514;14.614;2023-05-23T02:39:15;99504.44;;;10.92;40.84
15880;BME280;61999;51.514;14.614;2023-05-23T02:41:43;99515.81;;;10.83;41.66
15880;BME280;61999;51.514;14.614;2023-05-23T02:44:11;99508.84;;;10.82;41.58
15880;BME280;61999;51.514;14.614;2023-05-23T02:46:39;99506.63;;;10.87;41.29
15880;BME280;61999;51.514;14.614;2023-05-23T02:49:07;99511.06;;;10.77;41.93
15880;BME280;61999;51.514;14.614;2023-05-23T02:51:36;99510.53;;;10.83;41.73
15880;BME280;61999;51.514;14.614;2023-05-23T02:54:04;99519.69;;;10.89;41.34
15880;BME280;61999;51.514;14.614;2023-05-23T02:56:32;99521.34;;;10.90;40.96
15880;BME280;61999;51.514;14.614;2023-05-23T02:59:00;99512.47;;;10.91;41.47
15880;BME280;61999;51.514;14.614;2023-05-23T03:01:28;99515.81;;;10.93;41.77
15880;BME280;61999;51.514;14.614;2023-05-23T03:03:57;99509.44;;;10.96;41.40
15880;BME280;61999;51.514;14.614;2023-05-23T03:06:25;99508.44;;;10.97;41.70
15880;BME280;61999;51.514;14.614;2023-05-23T03:08:54;99505.81;;;10.97;41.49
15880;BME280;61999;51.514;14.614;2023-05-23T03:11:22;99502.75;;;10.91;42.26
15880;BME280;61999;51.514;14.614;2023-05-23T03:13:51;99500.81;;;10.93;41.98
15880;BME280;61999;51.514;14.614;2023-05-23T03:16:19;99493.59;;;10.96;42.04
15880;BME280;61999;51.514;14.614;2023-05-23T03:18:47;99487.22;;;10.98;41.76
15880;BME280;61999;51.514;14.614;2023-05-23T03:21:15;99495.25;;;10.97;41.76
15880;BME280;61999;51.514;14.614;2023-05-23T03:23:43;99493.31;;;10.99;42.33
15880;BME280;61999;51.514;14.614;2023-05-23T03:26:12;99489.69;;;11.00;42.25
15880;BME280;61999;51.514;14.614;2023-05-23T03:28:40;99498.31;;;11.02;42.28
15880;BME280;61999;51.514;14.614;2023-05-23T03:31:09;99486.13;;;11.01;42.86
15880;BME280;61999;51.514;14.614;2023-05-23T03:33:37;99488.03;;;10.99;43.42
15880;BME280;61999;51.514;14.614;2023-05-23T03:36:06;99478.59;;;10.96;43.17
15880;BME280;61999;51.514;14.614;2023-05-23T03:38:34;99482.78;;;10.99;43.40
15880;BME280;61999;51.514;14.614;2023-05-23T03:41:02;99472.66;;;11.04;43.41
15880;BME280;61999;51.514;14.614;2023-05-23T03:43:31;99480.28;;;11.07;42.83
15880;BME280;61999;51.514;14.614;2023-05-23T03:46:00;99480.28;;;11.07;43.20
15880;BME280;61999;51.514;14.614;2023-05-23T03:48:28;99473.31;;;11.06;43.49
15880;BME280;61999;51.514;14.614;2023-05-23T03:50:57;99468.63;;;11.09;42.91
15880;BME280;61999;51.514;14.614;2023-05-23T03:53:25;99468.63;;;11.09;43.32
15880;BME280;61999;51.514;14.614;2023-05-23T03:55:53;99466.94;;;11.08;43.10
15880;BME280;61999;51.514;14.614;2023-05-23T03:58:21;99464.16;;;11.10;43.44
15880;BME280;61999;51.514;14.614;2023-05-23T04:00:50;99456.09;;;11.11;43.40
15880;BME280;61999;51.514;14.614;2023-05-23T04:03:19;99446.69;;;11.09;43.49
15880;BME280;61999;51.514;14.614;2023-05-23T04:05:48;99447.50;;;11.09;43.78
15880;BME280;61999;51.514;14.614;2023-05-23T04:08:16;99435.97;;;11.10;44.28
15880;BME280;61999;51.514;14.614;2023-05-23T04:10:47;99446.41;;;11.12;43.66
15880;BME280;61999;51.514;14.614;2023-05-23T04:13:15;99440.84;;;11.15;44.24
15880;BME280;61999;51.514;14.614;2023-05-23T04:15:43;99441.38;;;11.19;43.75
15880;BME280;61999;51.514;14.614;2023-05-23T04:18:15;99448.03;;;11.23;43.65
15880;BME280;61999;51.514;14.614;2023-05-23T04:20:43;99445.97;;;11.26;43.91
15880;BME280;61999;51.514;14.614;2023-05-23T04:23:11;99443.03;;;11.29;43.83
15880;BME280;61999;51.514;14.614;2023-05-23T04:25:39;99453.31;;;11.32;43.88
15880;BME280;61999;51.514;14.614;2023-05-23T04:28:07;99454.72;;;11.36;43.76
15880;BME280;61999;51.514;14.614;2023-05-23T04:30:36;99472.91;;;11.40;43.72
15880;BME280;61999;51.514;14.614;2023-05-23T04:33:04;99468.31;;;11.42;43.75
15880;BME280;61999;51.514;14.614;2023-05-23T04:35:33;99475.94;;;11.45;43.64
15880;BME280;61999;51.514;14.614;2023-05-23T04:38:04;99473.88;;;11.39;44.40
15880;BME280;61999;51.514;14.614;2023-05-23T04:40:32;99464.03;;;11.41;44.33
15880;BME280;61999;51.514;14.614;2023-05-23T04:43:00;99478.59;;;11.45;44.07
15880;BME280;61999;51.514;14.614;2023-05-23T04:45:28;99478.59;;;11.45;44.42
15880;BME280;61999;51.514;14.614;2023-05-23T04:47:56;99468.03;;;11.45;44.72
15880;BME280;61999;51.514;14.614;2023-05-23T04:50:24;99479.81;;;11.50;44.40
15880;BME280;61999;51.514;14.614;2023-05-23T04:52:55;99475.78;;;11.56;44.69
15880;BME280;61999;51.514;14.614;2023-05-23T04:55:23;99467.44;;;11.61;44.03
15880;BME280;61999;51.514;14.614;2023-05-23T04:57:52;99466.31;;;11.63;44.18
15880;BME280;61999;51.514;14.614;2023-05-23T05:00:20;99474.91;;;11.65;44.54
15880;BME280;61999;51.514;14.614;2023-05-23T05:02:48;99472.72;;;11.61;45.23
15880;BME280;61999;51.514;14.614;2023-05-23T05:05:16;99481.59;;;11.59;45.38
15880;BME280;61999;51.514;14.614;2023-05-23T05:07:44;99478.84;;;11.61;45.16
15880;BME280;61999;51.514;14.614;2023-05-23T05:10:14;99490.06;;;11.63;44.54
15880;BME280;61999;51.514;14.614;2023-05-23T05:12:43;99497.03;;;11.64;45.08
15880;BME280;61999;51.514;14.614;2023-05-23T05:15:12;99510.94;;;11.66;45.11
15880;BME280;61999;51.514;14.614;2023-05-23T05:17:40;99508.28;;;11.66;45.34
15880;BME280;61999;51.514;14.614;2023-05-23T05:20:10;99494.81;;;11.69;45.04
15880;BME280;61999;51.514;14.614;2023-05-23T05:22:38;99507.72;;;11.72;45.41
15880;BME280;61999;51.514;14.614;2023-05-23T05:25:09;99508.38;;;11.74;45.13
15880;BME280;61999;51.514;14.614;2023-05-23T05:27:39;99526.63;;;11.29;49.99
15880;BME280;61999;51.514;14.614;2023-05-23T05:30:08;99509.44;;;11.44;48.40
15880;BME280;61999;51.514;14.614;2023-05-23T05:32:36;99530.53;;;11.25;51.02
15880;BME280;61999;51.514;14.614;2023-05-23T05:35:05;99523.47;;;11.45;49.31
15880;BME280;61999;51.514;14.614;2023-05-23T05:37:34;99520.25;;;11.51;49.13
15880;BME280;61999;51.514;14.614;2023-05-23T05:40:03;99533.00;;;11.65;49.13
15880;BME280;61999;51.514;14.614;2023-05-23T05:42:34;99519.66;;;11.76;48.59
15880;BME280;61999;51.514;14.614;2023-05-23T05:45:04;99531.88;;;11.87;48.22
15880;BME280;61999;51.514;14.614;2023-05-23T05:47:32;99522.94;;;11.98;47.40
15880;BME280;61999;51.514;14.614;2023-05-23T05:50:00;99522.75;;;12.09;47.70
15880;BME280;61999;51.514;14.614;2023-05-23T05:52:29;99512.28;;;12.17;47.05
15880;BME280;61999;51.514;14.614;2023-05-23T05:54:57;99512.69;;;12.22;47.17
15880;BME280;61999;51.514;14.614;2023-05-23T05:57:25;99516.13;;;12.33;47.21
15880;BME280;61999;51.514;14.614;2023-05-23T05:59:53;99517.19;;;12.40;47.03
15880;BME280;61999;51.514;14.614;2023-05-23T06:02:22;99508.53;;;12.47;47.01
15880;BME280;61999;51.514;14.614;2023-05-23T06:04:50;99512.41;;;12.53;47.28
15880;BME280;61999;51.514;14.614;2023-05-23T06:07:18;99505.22;;;12.63;47.23
15880;BME280;61999;51.514;14.614;2023-05-23T06:09:46;99500.63;;;12.65;47.28
15880;BME280;61999;51.514;14.614;2023-05-23T06:12:14;99504.06;;;12.76;47.03
15880;BME280;61999;51.514;14.614;2023-05-23T06:14:42;99503.28;;;12.83;47.58
15880;BME280;61999;51.514;14.614;2023-05-23T06:17:10;99500.88;;;12.90;46.99
15880;BME280;61999;51.514;14.614;2023-05-23T06:19:39;99493.88;;;12.99;46.92
15880;BME280;61999;51.514;14.614;2023-05-23T06:22:07;99493.09;;;13.06;47.23
15880;BME280;61999;51.514;14.614;2023-05-23T06:24:35;99499.16;;;13.16;47.37
15880;BME280;61999;51.514;14.614;2023-05-23T06:27:04;99491.81;;;13.28;47.06
15880;BME280;61999;51.514;14.614;2023-05-23T06:29:32;99485.75;;;13.36;47.44
15880;BME280;61999;51.514;14.614;2023-05-23T06:32:01;99492.13;;;13.51;47.62
15880;BME280;61999;51.514;14.614;2023-05-23T06:34:29;99486.22;;;13.57;47.35
15880;BME280;61999;51.514;14.614;2023-05-23T06:36:59;99489.59;;;13.68;46.86
15880;BME280;61999;51.514;14.614;2023-05-23T06:39:26;99489.31;;;13.71;47.03
15880;BME280;61999;51.514;14.614;2023-05-23T06:41:54;99498.91;;;13.72;46.85
15880;BME280;61999;51.514;14.614;2023-05-23T06:44:23;99496.94;;;13.74;47.29
15880;BME280;61999;51.514;14.614;2023-05-23T06:46:51;99505.59;;;13.76;47.23
15880;BME280;61999;51.514;14.614;2023-05-23T06:49:23;99503.63;;;13.78;46.80
15880;BME280;61999;51.514;14.614;2023-05-23T06:51:51;99504.75;;;13.75;47.27
15880;BME280;61999;51.514;14.614;2023-05-23T06:54:20;99506.75;;;13.55;49.71
15880;BME280;61999;51.514;14.614;2023-05-23T06:56:48;99516.88;;;12.25;56.10
15880;BME280;61999;51.514;14.614;2023-05-23T06:59:17;99510.50;;;11.71;58.55
15880;BME280;61999;51.514;14.614;2023-05-23T07:01:46;99507.19;;;11.59;59.60
15880;BME280;61999;51.514;14.614;2023-05-23T07:04:14;99504.13;;;11.54;60.64
15880;BME280;61999;51.514;14.614;2023-05-23T07:06:41;99506.38;;;11.29;61.14
15880;BME280;61999;51.514;14.614;2023-05-23T07:09:09;99504.41;;;11.51;60.24
15880;BME280;61999;51.514;14.614;2023-05-23T07:11:40;99509.16;;;12.59;56.56
15880;BME280;61999;51.514;14.614;2023-05-23T07:14:08;99500.50;;;13.21;53.51
15880;BME280;61999;51.514;14.614;2023-05-23T07:16:36;99501.56;;;13.28;54.17
15880;BME280;61999;51.514;14.614;2023-05-23T07:19:04;99505.59;;;13.76;51.93
15880;BME280;61999;51.514;14.614;2023-05-23T07:21:32;99500.56;;;13.99;51.36
15880;BME280;61999;51.514;14.614;2023-05-23T07:24:00;99501.84;;;14.21;50.16
15880;BME280;61999;51.514;14.614;2023-05-23T07:26:28;99501.13;;;13.76;52.23
15880;BME280;61999;51.514;14.614;2023-05-23T07:28:57;99503.19;;;13.03;55.25
15880;BME280;61999;51.514;14.614;2023-05-23T07:31:25;99507.22;;;12.34;57.45
15880;BME280;61999;51.514;14.614;2023-05-23T07:33:53;99504.56;;;12.61;56.36
15880;BME280;61999;51.514;14.614;2023-05-23T07:36:22;99506.22;;;11.97;59.73
15880;BME280;61999;51.514;14.614;2023-05-23T07:38:50;99509.84;;;12.61;57.81
15880;BME280;61999;51.514;14.614;2023-05-23T07:41:19;99504.59;;;13.33;55.32
15880;BME280;61999;51.514;14.614;2023-05-23T07:43:47;99503.03;;;13.48;54.79
15880;BME280;61999;51.514;14.614;2023-05-23T07:46:17;99512.47;;;13.25;55.84
15880;BME280;61999;51.514;14.614;2023-05-23T07:48:45;99507.00;;;13.26;57.18
15880;BME280;61999;51.514;14.614;2023-05-23T07:51:13;99515.88;;;12.99;57.16
15880;BME280;61999;51.514;14.614;2023-05-23T07:53:41;99517.66;;;11.98;60.03
15880;BME280;61999;51.514;14.614;2023-05-23T07:56:09;99518.56;;;11.69;63.10
15880;BME280;61999;51.514;14.614;2023-05-23T07:58:37;99517.06;;;12.04;61.70
15880;BME280;61999;51.514;14.614;2023-05-23T08:01:05;99516.66;;;12.36;60.78
15880;BME280;61999;51.514;14.614;2023-05-23T08:03:35;99514.84;;;12.64;59.57
15880;BME280;61999;51.514;14.614;2023-05-23T08:06:03;99512.63;;;13.05;57.30
15880;BME280;61999;51.514;14.614;2023-05-23T08:08:33;99511.00;;;12.77;58.04
15880;BME280;61999;51.514;14.614;2023-05-23T08:11:01;99519.81;;;12.49;58.73
15880;BME280;61999;51.514;14.614;2023-05-23T08:13:30;99526.13;;;12.84;58.10
15880;BME280;61999;51.514;14.614;2023-05-23T08:15:58;99523.09;;;12.34;59.30
15880;BME280;61999;51.514;14.614;2023-05-23T08:18:28;99517.34;;;13.37;55.96
15880;BME280;61999;51.514;14.614;2023-05-23T08:20:57;99511.84;;;13.75;55.08
15880;BME280;61999;51.514;14.614;2023-05-23T08:23:25;99507.94;;;14.47;52.55
15880;BME280;61999;51.514;14.614;2023-05-23T08:25:54;99509.53;;;14.99;51.26
15880;BME280;61999;51.514;14.614;2023-05-23T08:28:22;99512.16;;;14.40;50.93
15880;BME280;61999;51.514;14.614;2023-05-23T08:30:50;99515.13;;;13.07;56.18
15880;BME280;61999;51.514;14.614;2023-05-23T08:33:19;99517.22;;;13.83;55.38
15880;BME280;61999;51.514;14.614;2023-05-23T08:35:47;99503.22;;;14.33;53.07
15880;BME280;61999;51.514;14.614;2023-05-23T08:38:17;99521.28;;;14.03;53.44
15880;BME280;61999;51.514;14.614;2023-05-23T08:40:50;99520.66;;;13.13;55.04
15880;BME280;61999;51.514;14.614;2023-05-23T08:43:19;99524.53;;;12.74;55.31
15880;BME280;61999;51.514;14.614;2023-05-23T08:45:50;99521.84;;;13.63;55.10
15880;BME280;61999;51.514;14.614;2023-05-23T08:48:19;99524.03;;;14.20;51.85
15880;BME280;61999;51.514;14.614;2023-05-23T08:50:49;99523.69;;;13.89;53.50
15880;BME280;61999;51.514;14.614;2023-05-23T08:53:22;99515.91;;;14.56;51.72
15880;BME280;61999;51.514;14.614;2023-05-23T08:55:54;99517.38;;;15.17;49.58
15880;BME280;61999;51.514;14.614;2023-05-23T08:58:25;99519.88;;;15.19;47.93
15880;BME280;61999;51.514;14.614;2023-05-23T09:00:55;99519.63;;;15.04;49.62
15880;BME280;61999;51.514;14.614;2023-05-23T09:03:25;99521.34;;;13.59;52.46
15880;BME280;61999;51.514;14.614;2023-05-23T09:05:54;99527.03;;;14.25;51.17
15880;BME280;61999;51.514;14.614;2023-05-23T09:08:23;99522.00;;;15.07;50.51
15880;BME280;61999;51.514;14.614;2023-05-23T09:10:52;99525.66;;;15.55;48.15
15880;BME280;61999;51.514;14.614;2023-05-23T09:13:21;99529.66;;;13.65;51.25
15880;BME280;61999;51.514;14.614;2023-05-23T09:16:02;99531.13;;;12.87;54.71
15880;BME280;61999;51.514;14.614;2023-05-23T09:18:37;99532.13;;;13.84;52.81
15880;BME280;61999;51.514;14.614;2023-05-23T09:21:06;99527.22;;;14.74;49.81
15880;BME280;61999;51.514;14.614;2023-05-23T09:23:38;99525.91;;;14.70;49.55
15880;BME280;61999;51.514;14.614;2023-05-23T09:26:08;99521.00;;;15.40;48.31
15880;BME280;61999;51.514;14.614;2023-05-23T09:28:38;99524.69;;;15.39;47.30
15880;BME280;61999;51.514;14.614;2023-05-23T09:31:07;99525.63;;;15.06;48.49
15880;BME280;61999;51.514;14.614;2023-05-23T09:33:41;99529.41;;;14.79;47.40
15880;BME280;61999;51.514;14.614;2023-05-23T09:36:09;99524.75;;;14.89;48.92
15880;BME280;61999;51.514;14.614;2023-05-23T09:38:40;99532.78;;;13.86;49.90
15880;BME280;61999;51.514;14.614;2023-05-23T09:41:09;99539.19;;;12.86;53.27
15880;BME280;61999;51.514;14.614;2023-05-23T09:43:38;99539.81;;;13.51;51.53
15880;BME280;61999;51.514;14.614;2023-05-23T09:46:10;99542.59;;;13.24;50.88
15880;BME280;61999;51.514;14.614;2023-05-23T09:48:38;99527.59;;;14.02;50.88
15880;BME280;61999;51.514;14.614;2023-05-23T09:51:08;99533.84;;;13.93;48.39
15880;BME280;61999;51.514;14.614;2023-05-23T09:53:36;99528.31;;;14.13;48.88
15880;BME280;61999;51.514;14.614;2023-05-23T09:56:08;99522.00;;;15.23;45.63
15880;BME280;61999;51.514;14.614;2023-05-23T09:58:39;99508.06;;;15.54;44.72
15880;BME280;61999;51.514;14.614;2023-05-23T10:01:09;99525.34;;;15.50;43.68
15880;BME280;61999;51.514;14.614;2023-05-23T10:03:44;99519.09;;;14.25;45.17
15880;BME280;61999;51.514;14.614;2023-05-23T10:06:24;99534.13;;;14.16;44.99
15880;BME280;61999;51.514;14.614;2023-05-23T10:08:57;99518.16;;;15.09;43.71
15880;BME280;61999;51.514;14.614;2023-05-23T10:12:32;99523.97;;;15.05;41.92
15880;BME280;61999;51.514;14.614;2023-05-23T10:15:05;99517.00;;;15.12;42.28
15880;BME280;61999;51.514;14.614;2023-05-23T10:17:45;99522.16;;;15.13;42.51
15880;BME280;61999;51.514;14.614;2023-05-23T10:20:25;99518.56;;;16.19;40.27
15880;BME280;61999;51.514;14.614;2023-05-23T10:22:55;99523.31;;;16.32;39.97
15880;BME280;61999;51.514;14.614;2023-05-23T10:25:25;99523.59;;;17.31;40.49
15880;BME280;61999;51.514;14.614;2023-05-23T10:27:57;99521.88;;;16.21;42.24
15880;BME280;61999;51.514;14.614;2023-05-23T10:30:28;99528.00;;;16.92;42.41
15880;BME280;61999;51.514;14.614;2023-05-23T10:32:57;99521.78;;;17.84;39.91
15880;BME280;61999;51.514;14.614;2023-05-23T10:35:41;99534.16;;;17.77;40.01
15880;BME280;61999;51.514;14.614;2023-05-23T10:38:30;99525.00;;;17.94;38.67
15880;BME280;61999;51.514;14.614;2023-05-23T10:41:09;99526.94;;;18.15;38.07
15880;BME280;61999;51.514;14.614;2023-05-23T10:43:47;99530.06;;;17.89;38.61
15880;BME280;61999;51.514;14.614;2023-05-23T10:46:19;99524.84;;;18.11;37.61
15880;BME280;61999;51.514;14.614;2023-05-23T10:48:53;99522.72;;;16.61;37.03
15880;BME280;61999;51.514;14.614;2023-05-23T10:51:24;99530.44;;;17.02;38.81
15880;BME280;61999;51.514;14.614;2023-05-23T10:53:53;99530.84;;;17.75;38.08
15880;BME280;61999;51.514;14.614;2023-05-23T10:56:22;99522.59;;;17.32;37.65
15880;BME280;61999;51.514;14.614;2023-05-23T10:58:56;99528.91;;;17.69;37.29
15880;BME280;61999;51.514;14.614;2023-05-23T11:01:25;99536.06;;;16.53;37.67
15880;BME280;61999;51.514;14.614;2023-05-23T11:03:54;99532.91;;;17.50;37.23
15880;BME280;61999;51.514;14.614;2023-05-23T11:06:31;99534.28;;;17.46;36.68
15880;BME280;61999;51.514;14.614;2023-05-23T11:09:05;99527.03;;;17.92;36.26
15880;BME280;61999;51.514;14.614;2023-05-23T11:11:54;99532.16;;;18.38;35.02
15880;BME280;61999;51.514;14.614;2023-05-23T11:14:52;99536.00;;;17.61;36.00
15880;BME280;61999;51.514;14.614;2023-05-23T11:17:31;99526.03;;;19.10;34.52
15880;BME280;61999;51.514;14.614;2023-05-23T11:20:03;99520.56;;;19.47;31.55
15880;BME280;61999;51.514;14.614;2023-05-23T11:22:34;99515.31;;;20.16;31.71
15880;BME280;61999;51.514;14.614;2023-05-23T11:25:07;99520.88;;;19.30;31.13
15880;BME280;61999;51.514;14.614;2023-05-23T11:27:37;99529.56;;;18.96;32.40
15880;BME280;61999;51.514;14.614;2023-05-23T11:30:09;99527.03;;;18.51;32.15
15880;BME280;61999;51.514;14.614;2023-05-23T11:32:40;99520.84;;;18.87;31.52
15880;BME280;61999;51.514;14.614;2023-05-23T11:35:09;99522.22;;;18.32;31.10
15880;BME280;61999;51.514;14.614;2023-05-23T11:37:38;99525.56;;;19.07;32.09
15880;BME280;61999;51.514;14.614;2023-05-23T11:40:27;99528.59;;;20.38;30.08
15880;BME280;61999;51.514;14.614;2023-05-23T11:42:56;99519.72;;;19.39;30.65
15880;BME280;61999;51.514;14.614;2023-05-23T11:45:27;99533.94;;;18.82;30.00
15880;BME280;61999;51.514;14.614;2023-05-23T11:47:56;99528.22;;;21.29;28.47
15880;BME280;61999;51.514;14.614;2023-05-23T11:50:24;99526.81;;;21.46;27.95
15880;BME280;61999;51.514;14.614;2023-05-23T11:52:54;99520.53;;;20.86;29.55
15880;BME280;61999;51.514;14.614;2023-05-23T11:55:22;99505.66;;;20.77;29.14
15880;BME280;61999;51.514;14.614;2023-05-23T11:57:55;99518.72;;;21.53;28.40
15880;BME280;61999;51.514;14.614;2023-05-23T12:00:23;99513.25;;;23.34;27.25
15880;BME280;61999;51.514;14.614;2023-05-23T12:02:52;99500.72;;;22.58;26.45
15880;BME280;61999;51.514;14.614;2023-05-23T12:05:20;99527.59;;;21.67;28.07
15880;BME280;61999;51.514;14.614;2023-05-23T12:07:48;99533.75;;;20.94;28.42
15880;BME280;61999;51.514;14.614;2023-05-23T12:10:17;99528.00;;;19.02;32.09
15880;BME280;61999;51.514;14.614;2023-05-23T12:12:47;99534.69;;;17.57;34.54
15880;BME280;61999;51.514;14.614;2023-05-23T12:15:18;99536.50;;;17.42;36.37
15880;BME280;61999;51.514;14.614;2023-05-23T12:17:46;99546.22;;;17.35;37.11
15880;BME280;61999;51.514;14.614;2023-05-23T12:20:15;99541.25;;;15.66;42.55
15880;BME280;61999;51.514;14.614;2023-05-23T12:22:43;99547.72;;;15.88;43.47
15880;BME280;61999;51.514;14.614;2023-05-23T12:25:12;99551.34;;;15.05;46.51
15880;BME280;61999;51.514;14.614;2023-05-23T12:27:40;99549.91;;;15.93;44.82
15880;BME280;61999;51.514;14.614;2023-05-23T12:30:12;99554.56;;;16.78;42.93
15880;BME280;61999;51.514;14.614;2023-05-23T12:32:43;99556.50;;;16.13;44.84
15880;BME280;61999;51.514;14.614;2023-05-23T12:35:14;99563.81;;;15.95;46.54
15880;BME280;61999;51.514;14.614;2023-05-23T12:37:44;99564.34;;;15.66;50.06
15880;BME280;61999;51.514;14.614;2023-05-23T12:40:14;99561.69;;;15.90;49.03
15880;BME280;61999;51.514;14.614;2023-05-23T12:42:49;99558.28;;;14.82;52.76
15880;BME280;61999;51.514;14.614;2023-05-23T12:45:19;99565.69;;;15.70;50.32
15880;BME280;61999;51.514;14.614;2023-05-23T12:47:47;99560.03;;;15.56;50.88
15880;BME280;61999;51.514;14.614;2023-05-23T12:50:17;99563.94;;;16.96;46.48
15880;BME280;61999;51.514;14.614;2023-05-23T12:52:45;99559.78;;;17.48;44.34
15880;BME280;61999;51.514;14.614;2023-05-23T12:55:13;99558.31;;;17.98;43.89
15880;BME280;61999;51.514;14.614;2023-05-23T12:57:41;99567.66;;;18.83;41.83
15880;BME280;61999;51.514;14.614;2023-05-23T13:00:11;99557.25;;;19.74;39.48
15880;BME280;61999;51.514;14.614;2023-05-23T13:02:39;99557.88;;;19.76;38.81
15880;BME280;61999;51.514;14.614;2023-05-23T13:05:08;99556.19;;;18.89;40.47